Date,TemperatureHighF,TemperatureAvgF,TemperatureLowF,DewpointHighF,DewpointAvgF,DewpointLowF,HumidityHigh,HumidityAvg,HumidityLow,PressureMaxIn,PressureMinIn,WindSpeedMaxMPH,WindSpeedAvgMPH,GustSpeedMaxMPH,PrecipitationSumIn
2013-1-1,80.8,73.7,64.8,64.1,59.9,57.0,81,62,51,30.14,29.98,14,3,21,0.00
2013-1-2,87.3,72.6,60.8,68.5,63.3,57.6,90,74,44,30.03,29.92,9,1,13,0.00
2013-1-3,85.8,74.5,67.3,70.2,66.6,64.0,91,78,55,30.07,29.96,8,2,14,0.00
2013-1-4,84.6,73.1,65.1,72.6,67.7,62.3,93,84,62,30.16,30.03,7,2,12,0.00
2013-1-5,79.3,71.2,65.7,71.7,67.0,62.8,94,87,72,30.19,30.09,8,2,12,0.08
2013-1-6,84.0,74.5,64.9,72.7,68.7,62.3,93,83,66,30.13,29.99,11,2,17,0.06
2013-1-7,81.9,72.0,67.8,72.0,67.8,65.4,93,87,59,30.10,30.00,8,2,12,0.08
2013-1-8,86.0,77.9,70.9,73.8,71.3,67.3,91,81,65,30.14,30.00,10,3,16,0.09
2013-1-9,84.9,78.9,75.4,73.4,70.9,68.4,88,76,65,30.22,30.09,11,4,21,0.00
2013-1-10,81.9,76.3,74.3,70.0,67.1,65.5,79,73,59,30.24,30.18,10,4,17,0.00
2013-1-11,84.0,77.5,73.8,69.8,67.6,65.7,85,72,60,30.19,30.09,10,4,17,0.00
2013-1-12,83.1,76.1,71.4,69.5,67.1,63.9,84,74,59,30.12,30.02,9,2,15,0.02
2013-1-13,85.3,77.2,72.1,68.1,65.7,63.5,81,68,51,30.07,30.01,9,3,16,0.00
2013-1-16,83.8,78.7,70.5,69.9,68.7,66.9,91,72,61,30.04,29.94,8,3,15,0.24
2013-1-17,80.4,71.4,60.8,72.2,65.9,54.3,92,83,71,30.03,29.91,17,3,28,0.05
2013-1-18,72.9,63.1,53.1,60.8,52.7,45.5,80,69,57,30.18,30.03,12,6,17,0.00
2013-1-19,71.8,68.9,63.7,68.8,63.4,56.9,94,83,62,30.16,30.02,10,2,15,0.21
2013-1-20,84.6,71.8,64.0,72.2,66.4,62.0,95,84,58,30.09,29.94,8,2,11,0.06
2013-1-21,82.8,72.8,65.5,74.7,67.5,63.1,93,84,66,30.01,29.89,11,2,16,0.02
2013-1-22,78.6,69.3,62.8,64.9,59.0,52.4,92,71,52,30.15,29.94,15,6,22,0.00
2013-1-23,77.9,69.0,61.2,58.4,54.4,51.3,80,60,43,30.24,30.13,11,4,19,0.00
2013-1-24,78.6,66.6,58.8,56.0,52.9,46.6,84,63,40,30.24,30.12,9,3,17,0.00
2013-1-25,80.2,67.4,57.2,59.9,54.8,50.1,83,66,43,30.24,30.11,9,2,14,0.00
2013-1-26,81.5,68.5,59.0,61.2,57.8,51.9,90,70,45,30.20,30.09,9,2,14,0.00
2013-1-27,80.1,71.3,62.4,64.0,60.9,58.2,88,71,51,30.22,30.14,11,3,19,0.00
2013-1-28,83.1,76.3,71.8,66.2,63.6,61.1,75,65,53,30.26,30.15,9,4,18,0.00
2013-1-29,81.7,75.6,72.0,69.7,66.7,63.7,82,74,65,30.17,30.05,11,3,19,0.00
2013-1-30,81.9,75.6,71.8,68.8,65.6,62.7,85,72,58,30.06,29.90,14,5,24,0.00
2013-1-31,74.5,67.7,60.1,71.0,58.9,39.7,92,75,45,30.12,29.88,12,4,21,0.00
2013-2-1,74.8,63.3,53.4,55.0,47.9,37.7,70,58,46,30.21,30.10,15,6,24,0.00
2013-2-2,77.2,64.9,56.7,53.6,48.5,36.6,83,57,39,30.21,30.06,9,2,14,0.00
2013-2-3,75.9,63.7,53.4,55.1,48.7,38.8,89,62,27,30.11,30.00,11,3,16,0.00
2013-2-4,78.4,63.5,52.2,54.9,47.7,39.0,82,59,30,30.09,29.96,8,2,14,0.00
2013-2-5,81.5,67.6,53.4,63.6,57.8,50.3,91,73,48,30.03,29.93,8,2,14,0.00
2013-2-6,83.3,71.4,60.3,67.6,62.1,57.3,92,74,54,30.04,29.96,6,2,12,0.00
2013-2-7,84.0,75.7,69.4,67.0,64.0,61.5,82,68,51,30.01,29.87,8,2,14,0.00
2013-2-8,87.8,76.1,68.9,70.6,67.9,64.6,91,77,52,29.97,29.84,11,3,17,0.00
2013-2-9,83.3,71.5,63.1,67.9,62.7,57.7,93,75,55,30.11,29.94,12,4,19,0.00
2013-2-10,77.9,72.3,68.2,65.1,61.3,55.5,85,69,60,30.20,30.09,13,4,24,0.09
2013-2-11,81.3,74.7,69.8,66.6,63.9,60.2,78,69,59,30.16,30.04,8,4,17,0.00
2013-2-12,86.9,75.6,66.9,69.9,66.9,63.1,89,75,55,30.05,29.90,11,3,17,0.00
2013-2-13,86.2,77.1,68.0,73.6,69.8,64.3,91,79,63,29.94,29.82,13,4,21,0.00
2013-2-14,83.3,72.8,63.5,74.1,68.0,61.0,93,85,68,29.94,29.78,17,4,26,0.38
2013-2-15,75.2,67.4,63.9,68.5,64.6,61.2,95,91,79,29.95,29.88,8,2,13,0.39
2013-2-16,76.3,66.1,55.8,64.2,56.7,44.6,94,74,41,30.02,29.81,14,5,26,0.01
2013-2-17,60.6,52.6,45.0,44.9,27.7,14.0,70,41,19,30.25,30.01,17,7,26,0.00
2013-2-18,72.7,60.7,47.7,56.1,45.0,33.4,65,56,42,30.27,30.14,98,5,98,0.00
2013-2-19,80.4,72.7,65.3,66.9,61.1,53.5,87,67,56,30.14,30.01,11,4,18,0.00
2013-2-20,82.2,71.9,64.6,67.6,63.8,58.0,93,77,48,30.05,29.94,9,2,14,0.00
2013-2-21,85.8,75.1,65.5,69.1,65.5,62.2,90,73,52,30.03,29.93,8,2,35,0.00
2013-2-22,83.8,77.0,72.1,72.0,69.7,66.2,86,78,65,30.03,29.95,11,4,18,0.00
2013-2-23,86.4,78.1,73.6,72.9,70.6,68.1,88,78,63,29.99,29.85,11,5,21,0.00
2013-2-24,89.1,78.6,72.0,75.1,70.9,67.2,93,78,54,29.93,29.83,8,2,18,0.00
2013-2-25,87.4,76.9,68.0,73.8,70.0,64.3,90,80,62,29.85,29.74,11,3,24,0.00
2013-2-26,86.4,79.8,75.6,73.1,70.9,68.0,87,75,57,29.83,29.73,15,6,27,0.00
2013-2-27,78.8,72.0,65.8,73.1,66.0,61.9,92,82,59,29.90,29.79,10,3,15,0.08
2013-2-28,71.6,63.8,60.8,63.9,55.1,46.7,92,74,43,29.95,29.84,12,3,18,0.00
2013-3-1,66.2,62.5,58.8,57.0,51.2,46.5,84,67,55,29.93,29.84,10,4,15,0.00
2013-3-2,66.6,58.6,52.9,48.5,41.7,35.0,69,54,39,29.98,29.89,17,6,25,0.00
2013-3-3,62.8,55.2,50.0,46.4,42.2,39.3,81,63,44,30.09,29.90,14,5,21,0.01
2013-3-4,69.6,55.4,43.5,43.5,37.1,32.8,72,52,29,30.16,30.06,14,4,23,0.00
2013-3-5,79.2,64.8,48.9,57.9,52.2,43.3,88,66,45,30.13,30.02,8,2,14,0.00
2013-3-6,80.1,66.8,53.1,64.8,50.8,22.8,89,60,21,30.05,29.88,15,6,26,0.00
2013-3-7,75.2,60.4,48.0,54.6,43.8,34.6,83,56,32,30.13,30.01,11,4,19,0.00
2013-3-8,58.5,55.0,54.7,53.3,51.1,50.9,88,87,82,30.10,30.07,4,2,6,0.00
2013-3-9,54.7,54.7,54.7,50.9,50.9,50.9,87,87,87,30.07,30.07,2,2,4,0.00
2013-3-10,54.7,54.7,54.7,50.9,50.9,50.9,87,87,87,30.07,30.07,2,2,4,0.00
2013-3-11,54.7,54.7,54.7,50.9,50.9,50.9,87,87,87,30.07,30.07,2,2,4,0.00
2013-3-12,54.7,54.7,54.7,50.9,50.9,50.9,87,87,87,30.07,30.07,2,2,4,0.00
2013-3-13,54.7,54.7,54.7,50.9,50.9,50.9,87,87,87,30.07,30.07,2,2,4,0.00
2013-3-14,54.7,54.7,54.7,50.9,50.9,50.9,87,87,87,30.07,30.07,2,2,4,0.00
2013-3-16,68.7,66.6,63.7,55.0,53.8,52.5,67,63,59,30.05,29.91,12,2,16,1.07
2013-3-17,80.8,69.4,57.7,62.0,57.6,51.6,86,67,48,29.95,29.81,11,2,18,0.00
2013-3-18,82.9,73.4,65.5,70.7,65.1,59.2,90,76,60,29.87,29.75,12,3,21,0.04
2013-3-19,82.8,74.0,68.0,69.8,67.6,64.5,93,81,58,29.81,29.59,14,2,24,0.01
2013-3-20,87.1,74.0,65.1,73.0,65.1,58.5,93,75,51,29.78,29.59,14,2,26,0.00
2013-3-21,79.2,68.6,59.0,62.3,52.6,35.4,90,61,22,29.74,29.62,11,4,17,0.00
2013-3-22,79.0,68.9,55.6,69.7,59.4,49.7,89,73,53,29.81,29.70,9,2,17,0.00
2013-3-23,89.4,79.3,71.6,74.7,71.6,68.7,92,78,52,29.78,29.59,11,3,21,0.02
2013-3-24,90.9,81.3,74.8,73.8,71.5,68.0,92,74,51,29.68,29.47,19,6,32,0.00
2013-3-25,81.1,75.4,66.2,73.8,60.2,41.0,91,63,32,29.79,29.53,14,5,21,0.04
2013-3-26,69.1,61.6,52.5,44.5,37.3,25.4,59,41,22,30.01,29.77,15,8,26,0.00
2013-3-27,71.2,58.1,46.8,47.3,40.7,34.4,71,54,31,30.05,29.96,14,5,20,0.00
2013-3-28,75.6,62.9,52.2,50.8,43.5,33.8,72,51,29,30.07,29.96,12,4,16,0.00
2013-3-29,77.9,67.0,58.1,52.9,48.8,40.7,64,53,36,30.09,29.99,13,4,20,0.00
2013-3-30,79.7,69.3,55.9,56.4,51.5,47.3,81,55,35,30.07,29.95,11,2,18,0.00
2013-3-31,83.1,73.9,66.4,66.5,61.6,53.5,82,66,50,29.99,29.84,12,3,20,0.00
2013-4-1,90.0,77.6,71.2,70.8,66.7,61.1,87,71,42,29.85,29.73,12,4,21,0.06
2013-4-2,87.4,75.3,66.6,68.2,65.6,63.4,93,73,50,29.87,29.78,8,3,14,0.00
2013-4-3,86.9,77.6,69.6,70.3,68.1,63.9,86,73,56,29.86,29.78,11,3,17,0.00
2013-4-4,87.3,76.4,67.6,73.6,69.9,64.9,94,81,63,29.84,29.69,19,4,32,1.77
2013-4-5,74.1,69.3,66.2,71.0,66.0,60.3,94,89,79,29.78,29.61,12,3,19,0.83
2013-4-6,81.5,69.9,59.9,67.2,61.2,57.3,93,75,56,29.88,29.71,13,6,20,0.00
2013-4-7,83.5,74.3,70.9,65.2,62.8,60.5,78,68,51,29.93,29.81,14,4,19,0.00
2013-4-8,85.8,74.7,61.2,68.6,61.5,57.5,91,65,40,29.93,29.84,10,2,17,0.00
2013-4-9,85.8,77.3,71.8,69.9,66.2,64.1,79,69,57,29.94,29.83,11,3,19,0.00
2013-4-10,88.2,79.3,73.4,72.9,70.1,65.7,83,74,59,29.90,29.78,11,3,18,0.00
2013-4-11,86.0,79.6,75.9,73.6,71.8,70.1,86,77,64,29.81,29.68,12,5,21,0.00
2013-4-12,89.2,80.8,76.8,77.7,74.1,72.4,91,80,65,29.74,29.64,13,5,23,0.40
2013-4-13,86.7,79.0,74.1,75.0,72.7,69.8,90,81,63,29.76,29.66,9,3,15,0.01
2013-4-14,88.9,81.0,72.5,75.6,73.6,69.5,92,79,61,29.76,29.67,12,3,21,0.00
2013-4-15,94.8,80.0,70.9,77.7,73.1,67.8,93,80,54,29.85,29.71,17,3,26,0.28
2013-4-16,89.4,79.8,71.4,77.3,72.6,68.5,94,80,59,29.91,29.81,12,3,20,0.00
2013-4-17,87.3,79.8,74.8,71.7,69.9,67.7,85,72,57,29.91,29.81,11,4,17,0.00
2013-4-18,89.4,81.6,75.4,74.8,71.2,68.6,83,71,58,29.85,29.77,11,3,21,0.00
2013-4-19,89.6,82.7,77.9,75.4,72.9,70.4,88,73,55,29.84,29.75,12,5,24,0.01
2013-4-20,94.6,79.4,70.7,77.7,73.5,68.6,95,83,57,29.87,29.73,23,2,30,1.61
2013-4-21,89.8,78.9,72.5,75.3,72.3,67.8,94,81,54,29.88,29.76,11,3,19,0.12
2013-4-22,89.6,75.7,69.6,73.1,70.1,67.2,95,84,58,29.84,29.71,14,2,21,0.87
2013-4-23,85.1,76.4,68.5,70.9,66.3,61.0,94,73,54,29.88,29.73,17,6,26,0.01
2013-4-24,87.8,78.8,70.2,66.9,63.6,60.1,72,60,48,29.93,29.82,11,4,15,0.00
2013-4-25,88.5,77.7,70.7,64.5,62.0,60.1,71,59,44,29.99,29.86,11,3,17,0.00
2013-4-26,85.5,77.1,68.5,67.5,64.0,60.3,78,64,52,30.01,29.90,12,4,20,0.00
2013-4-27,86.5,78.3,72.1,68.1,64.4,60.3,80,63,48,30.00,29.87,11,5,19,0.00
2013-4-28,87.1,79.0,73.4,66.1,64.0,61.0,75,61,48,29.91,29.78,10,4,17,0.00
2013-4-29,88.5,79.3,74.7,73.6,68.5,62.6,82,70,55,29.83,29.73,10,3,18,0.00
2013-4-30,86.2,76.5,68.2,74.7,70.5,65.8,94,82,62,29.79,29.71,17,2,29,1.54
2013-5-1,91.8,76.5,69.4,77.5,70.6,67.0,93,83,59,29.78,29.70,7,1,12,0.34
2013-5-2,81.3,72.9,66.9,74.3,69.7,65.5,96,90,77,29.73,29.57,14,4,27,3.41
2013-5-3,91.4,75.8,68.4,72.5,69.3,65.7,95,82,47,29.60,29.47,15,3,22,0.52
2013-5-4,90.5,78.3,68.9,71.3,67.8,65.2,94,72,46,29.59,29.47,10,4,17,0.01
2013-5-5,84.6,75.2,66.2,67.4,62.4,52.4,91,67,36,29.72,29.55,12,4,21,0.00
2013-5-6,88.0,74.8,61.2,65.2,60.4,55.8,88,63,40,29.81,29.71,8,2,13,0.00
2013-5-7,87.4,75.1,64.6,67.1,61.8,57.1,86,65,37,29.86,29.76,11,3,17,0.00
2013-5-8,89.8,76.6,64.4,67.6,61.0,51.0,87,62,29,29.93,29.84,9,2,16,0.00
2013-5-9,91.8,79.9,66.6,73.8,67.7,57.9,82,67,48,29.93,29.85,8,2,16,0.00
2013-5-10,92.8,82.6,72.0,76.1,72.4,68.4,90,73,47,29.93,29.81,10,2,17,0.04
2013-5-11,91.8,80.5,72.5,76.2,72.9,68.3,92,79,56,29.86,29.77,12,3,22,0.12
2013-5-12,93.0,79.2,70.2,75.9,72.1,68.0,95,80,55,29.86,29.74,17,2,24,1.03
2013-5-13,91.4,80.3,72.5,74.0,70.6,65.0,94,74,52,29.88,29.78,11,3,16,0.01
2013-5-14,86.2,78.1,72.9,68.0,61.3,55.5,73,57,43,29.96,29.85,14,5,21,0.00
2013-5-15,86.5,77.7,69.4,65.2,60.4,56.6,70,56,39,29.98,29.88,14,4,19,0.00
2013-5-16,87.4,78.2,68.5,65.2,61.8,56.8,73,58,43,29.91,29.83,8,2,17,0.00
2013-5-17,92.5,80.9,70.5,74.2,69.7,63.5,87,70,48,29.87,29.80,9,2,15,0.00
2013-5-18,91.8,80.9,73.2,77.8,72.2,70.0,95,76,59,29.90,29.81,13,2,18,0.72
2013-5-19,91.9,81.9,74.1,72.3,70.1,66.6,84,69,49,29.89,29.78,9,2,14,0.00
2013-5-20,83.8,76.9,70.2,75.4,72.4,67.8,96,86,73,29.87,29.75,16,2,30,2.16
2013-5-21,89.1,78.8,71.8,75.4,71.6,69.3,95,79,57,29.83,29.71,11,2,17,0.04
2013-5-22,92.1,78.8,72.5,76.7,73.1,68.3,92,83,57,29.75,29.67,13,2,21,0.18
2013-5-23,97.3,84.0,74.7,77.1,73.7,67.1,93,73,39,29.79,29.70,9,2,15,0.00
2013-5-24,95.2,84.5,76.1,77.8,74.6,71.3,92,74,48,29.85,29.73,8,2,14,0.00
2013-5-25,88.5,82.1,76.3,75.7,69.0,64.3,84,65,50,29.95,29.83,14,6,22,0.00
2013-5-26,88.2,80.9,74.7,69.4,65.8,61.3,76,60,49,29.97,29.89,12,5,20,0.00
2013-5-27,87.8,81.0,76.1,74.8,70.9,64.0,87,71,62,29.95,29.85,12,6,21,0.01
2013-5-28,87.6,80.0,74.8,75.5,73.2,70.9,93,80,65,29.90,29.83,13,4,23,0.33
2013-5-29,82.9,76.7,71.4,75.0,72.2,68.3,95,86,75,29.88,29.80,12,4,26,1.67
2013-5-30,87.4,80.1,73.9,78.0,73.3,68.6,95,80,67,29.86,29.78,14,5,24,0.17
2013-5-31,90.1,81.2,75.4,77.8,74.7,72.0,93,81,62,29.85,29.78,12,4,20,0.17
2013-6-1,90.0,79.1,74.5,78.5,75.0,72.2,95,88,67,29.82,29.74,11,2,17,0.87
2013-6-2,94.5,81.1,72.5,79.1,74.4,70.4,94,81,55,29.80,29.71,10,1,15,0.04
2013-6-3,91.9,80.2,73.2,80.0,74.4,70.3,95,83,58,29.82,29.70,8,2,14,0.99
2013-6-4,91.4,80.4,72.7,79.5,74.7,70.3,94,84,58,29.83,29.74,8,1,14,0.31
2013-6-5,88.2,82.5,78.8,78.6,76.7,74.5,90,83,72,29.81,29.67,8,2,14,0.01
2013-6-6,90.5,81.4,75.9,80.3,76.4,72.5,93,85,70,29.70,29.57,15,5,30,0.63
2013-6-7,90.3,78.4,74.3,80.5,74.2,70.9,93,87,67,29.80,29.62,14,3,22,0.96
2013-6-8,94.5,82.6,74.5,80.9,76.4,72.4,94,82,61,29.89,29.74,10,2,17,0.01
2013-6-9,93.4,85.1,79.9,78.1,75.8,74.4,86,74,59,29.90,29.82,9,3,17,0.00
2013-6-10,95.4,85.6,80.2,78.9,76.8,75.0,87,75,59,29.88,29.79,9,3,15,0.00
2013-6-11,94.5,84.9,79.7,79.8,77.2,74.2,91,79,54,29.89,29.79,8,2,13,0.07
2013-6-12,93.6,82.8,77.4,79.6,76.5,73.6,89,81,61,29.87,29.80,6,1,9,0.00
2013-6-13,95.2,82.6,75.4,78.4,74.3,69.7,93,77,46,29.84,29.73,8,1,15,0.00
2013-6-14,96.1,82.7,75.9,78.4,74.1,71.6,92,76,50,29.77,29.66,11,2,17,0.45
2013-6-15,95.9,85.4,75.9,78.3,75.4,72.8,92,74,51,29.85,29.72,7,2,11,0.01
2013-6-16,99.0,86.2,75.6,80.3,76.0,72.3,91,73,50,29.88,29.81,8,2,14,0.00
2013-6-17,96.4,87.6,78.6,78.5,76.0,73.4,86,69,52,29.88,29.79,7,2,14,0.00
2013-6-18,96.1,87.5,80.1,78.0,76.2,73.9,86,70,51,29.86,29.77,8,2,15,0.00
2013-6-19,96.1,87.0,79.2,78.5,76.1,72.4,88,71,49,29.84,29.77,10,2,14,0.00
2013-6-20,96.4,84.2,73.4,78.5,74.3,70.0,94,74,52,29.88,29.81,11,2,18,0.60
2013-6-21,95.9,86.8,77.7,77.3,74.8,71.7,93,69,48,29.90,29.82,8,2,14,0.17
2013-6-22,94.6,86.5,79.0,76.8,74.6,72.4,83,68,51,29.89,29.82,9,3,14,0.00
2013-6-23,94.6,86.3,78.6,77.0,74.3,70.4,83,68,52,29.92,29.83,9,3,16,0.00
2013-6-24,93.6,86.2,80.6,77.2,74.8,72.4,81,69,56,29.96,29.86,10,3,20,0.01
2013-6-25,95.4,85.7,79.5,79.0,75.7,72.3,86,73,55,29.92,29.82,9,3,17,0.01
2013-6-26,95.4,86.0,75.9,79.3,75.8,73.5,94,72,51,29.87,29.79,9,2,16,0.91
2013-6-27,93.7,85.1,77.4,79.5,75.8,70.8,88,74,57,29.85,29.74,14,1,21,0.07
2013-6-28,95.0,83.6,75.9,81.4,75.7,72.5,95,78,55,29.79,29.65,7,2,15,1.39
2013-6-29,95.2,83.1,74.7,79.9,76.1,72.2,95,80,55,29.71,29.62,11,2,18,0.12
2013-6-30,92.5,83.2,78.1,80.7,75.7,73.9,90,79,61,29.74,29.64,14,4,23,0.15
2013-7-1,91.8,84.0,79.3,79.9,76.4,72.9,89,78,59,29.83,29.70,13,4,24,0.00
2013-7-2,93.0,85.0,79.2,79.9,77.0,72.6,90,77,62,29.90,29.76,10,2,18,0.00
2013-7-3,93.2,84.7,79.0,79.8,76.1,72.3,89,76,60,29.92,29.83,10,3,21,0.08
2013-7-4,93.9,86.2,75.0,78.2,75.8,71.4,94,72,58,29.95,29.85,11,3,24,0.12
2013-7-5,93.0,84.0,77.0,79.4,76.2,73.7,93,78,61,29.93,29.83,10,3,20,0.12
2013-7-6,93.6,85.7,79.2,78.6,75.7,73.4,87,73,56,29.91,29.81,12,3,24,0.13
2013-7-7,93.6,85.9,80.2,78.2,75.5,73.5,83,72,59,29.89,29.81,11,4,20,0.00
2013-7-8,94.6,86.3,79.7,76.8,74.1,71.6,82,68,52,29.93,29.86,10,2,17,0.00
2013-7-9,92.8,84.0,76.3,76.4,73.3,68.7,89,71,53,29.93,29.83,10,2,15,0.01
2013-7-10,91.2,81.5,73.2,78.5,74.4,70.8,95,80,60,29.88,29.79,7,1,12,0.15
2013-7-11,96.1,86.4,77.9,79.4,75.3,72.2,89,71,50,29.83,29.73,8,2,13,0.00
2013-7-12,93.9,83.4,76.3,78.4,74.4,68.7,91,75,53,29.77,29.68,12,1,21,0.24
2013-7-13,89.4,76.8,73.0,77.5,73.1,70.6,95,89,65,29.83,29.71,8,1,14,1.81
2013-7-14,95.2,81.0,72.1,78.2,73.9,70.6,96,81,51,29.89,29.78,10,3,17,0.92
2013-7-15,93.7,83.3,72.7,79.0,74.4,70.6,95,76,54,29.88,29.79,8,2,15,0.15
2013-7-16,88.3,79.4,73.8,76.1,72.9,70.5,92,81,60,29.95,29.84,11,3,26,0.35
2013-7-17,81.0,76.8,72.1,77.5,73.6,65.8,95,90,78,29.95,29.83,8,2,15,1.38
2013-7-18,89.4,77.6,72.0,81.2,74.4,70.4,96,90,72,29.92,29.85,12,1,25,0.65
2013-7-19,94.5,83.0,73.8,80.9,76.8,71.7,95,82,59,29.92,29.83,9,2,17,0.01
2013-7-20,92.3,84.1,78.3,81.2,77.4,72.2,90,81,67,29.91,29.82,12,2,19,0.00
2013-7-21,95.9,84.1,77.0,80.8,77.3,73.2,93,81,59,29.94,29.84,8,1,13,0.00
2013-7-22,95.4,86.6,79.3,78.9,76.4,73.9,90,73,51,29.94,29.85,11,2,17,0.00
2013-7-23,97.7,86.2,77.5,79.8,76.4,73.8,89,74,49,29.91,29.75,9,2,15,0.00
2013-7-24,97.0,87.2,78.6,78.9,74.7,69.9,89,68,44,29.82,29.69,10,3,14,0.00
2013-7-25,97.7,87.2,78.1,76.7,74.6,72.0,86,67,49,29.81,29.71,10,3,17,0.00
2013-7-26,97.7,85.0,77.7,78.7,75.9,73.7,90,76,47,29.82,29.71,11,4,17,0.14
2013-7-27,93.2,82.0,77.2,79.9,76.4,73.9,91,84,63,29.80,29.73,11,2,17,0.08
2013-7-28,90.7,83.5,77.7,79.1,76.6,73.4,92,80,67,29.87,29.75,8,2,13,0.02
2013-7-29,96.4,85.7,76.8,81.2,77.3,73.8,93,77,55,29.92,29.81,9,2,15,0.04
2013-7-30,95.7,86.8,76.6,80.9,77.9,73.5,91,76,59,29.95,29.86,10,3,16,0.11
2013-7-31,95.4,87.5,81.1,79.4,76.6,72.5,87,71,55,29.90,29.79,9,3,18,0.00
2013-8-1,95.7,86.6,80.6,77.2,75.2,72.6,81,69,53,29.84,29.73,11,3,17,0.00
2013-8-2,94.8,83.9,75.9,77.7,74.6,72.0,94,75,50,29.85,29.70,9,2,18,0.37
2013-8-3,92.7,80.2,72.5,79.9,75.5,69.2,95,86,63,29.93,29.81,17,1,30,0.54
2013-8-4,98.1,85.2,76.8,80.7,76.3,73.9,93,76,53,29.91,29.77,11,1,18,0.01
2013-8-5,95.5,84.6,78.6,81.8,76.7,72.0,89,78,59,29.83,29.73,11,2,17,0.07
2013-8-6,97.3,85.5,76.6,79.7,76.6,73.0,93,76,56,29.78,29.67,8,1,14,0.04
2013-8-7,95.4,85.9,77.7,79.6,76.3,73.4,92,74,54,29.77,29.69,10,2,16,0.00
2013-8-8,96.8,88.0,82.2,80.3,76.3,72.1,84,69,52,29.81,29.71,9,3,17,0.00
2013-8-9,92.7,84.9,80.4,79.4,75.3,70.7,83,73,60,29.85,29.73,8,2,18,0.17
2013-8-10,96.4,87.6,81.1,79.5,76.8,74.9,85,71,53,29.91,29.82,9,3,15,0.00
2013-8-11,96.3,88.0,81.9,80.4,77.3,73.4,84,71,56,29.92,29.85,10,3,16,0.00
2013-8-12,95.4,86.1,77.5,79.2,75.8,72.0,85,72,57,29.90,29.80,9,3,16,0.01
2013-8-13,97.0,88.3,80.6,79.2,76.3,73.0,85,69,48,29.83,29.74,7,2,17,0.00
2013-8-14,97.0,87.8,79.5,78.0,75.7,73.7,85,68,49,29.82,29.71,8,2,14,0.00
2013-8-15,91.4,83.0,75.9,80.3,76.9,72.5,93,82,68,29.85,29.75,8,2,16,0.17
2013-8-16,97.2,87.9,79.0,81.2,78.4,75.9,93,74,53,29.84,29.76,8,2,13,0.00
2013-8-17,95.5,88.6,81.9,81.0,78.7,74.8,86,73,59,29.87,29.78,8,2,17,0.00
2013-8-18,96.3,88.0,82.4,80.2,77.9,74.5,84,72,59,29.86,29.78,10,3,17,0.00
2013-8-19,97.0,87.9,81.1,81.0,77.8,75.2,85,73,55,29.86,29.75,8,3,17,0.02
2013-8-20,96.3,87.4,80.8,79.6,76.8,72.6,87,71,55,29.85,29.77,10,3,19,0.04
2013-8-21,95.0,85.6,79.3,83.7,78.3,75.2,91,79,60,29.86,29.78,12,3,21,0.15
2013-8-22,96.3,86.4,74.1,82.0,78.0,71.4,96,77,57,29.88,29.74,11,2,17,0.61
2013-8-23,96.8,86.9,80.2,81.6,77.2,74.2,87,73,54,29.80,29.72,8,2,15,0.00
2013-8-24,97.0,86.5,74.8,79.5,76.5,70.7,93,73,50,29.90,29.75,8,2,14,0.53
2013-8-25,91.2,82.8,77.7,79.1,76.2,73.4,93,81,61,29.94,29.81,8,2,13,0.08
2013-8-26,93.2,84.1,78.3,80.2,75.4,70.7,88,76,56,29.91,29.80,9,2,15,0.08
2013-8-27,91.8,82.1,75.6,77.9,73.8,70.6,91,77,56,29.83,29.75,10,2,14,0.00
2013-8-28,94.6,83.5,76.1,79.4,75.3,72.2,93,77,55,29.83,29.73,8,1,14,0.27
2013-8-29,96.3,85.7,75.6,79.7,76.2,72.3,92,74,53,29.81,29.71,8,2,14,0.00
2013-8-30,96.8,86.5,76.3,78.5,75.0,71.1,91,70,49,29.79,29.68,8,2,16,0.00
2013-8-31,97.3,82.4,76.3,80.9,75.7,73.2,92,81,54,29.77,29.70,8,2,12,0.20
2013-9-1,95.0,82.5,74.7,80.5,76.4,72.4,94,82,59,29.79,29.71,7,1,11,0.04
2013-9-2,95.2,80.7,73.6,81.8,75.7,70.5,93,85,56,29.82,29.73,11,1,17,0.61
2013-9-3,95.2,82.6,73.0,81.0,76.3,70.6,94,82,59,29.82,29.72,8,1,12,0.04
2013-9-4,90.3,83.2,75.9,81.8,77.8,73.5,96,84,72,29.85,29.73,11,1,17,1.23
2013-9-5,96.1,86.6,80.1,81.2,78.1,76.2,93,76,60,29.86,29.78,9,2,14,0.00
2013-9-6,96.6,87.4,80.2,80.5,77.9,74.1,90,75,49,29.83,29.70,9,2,14,0.00
2013-9-7,90.7,81.9,76.6,79.3,75.9,72.7,92,82,65,29.78,29.69,13,2,20,0.05
2013-9-8,96.3,82.3,73.9,78.2,75.2,71.4,93,80,52,29.74,29.64,8,2,12,0.01
2013-9-9,94.1,84.3,74.5,79.5,75.1,71.4,92,75,56,29.78,29.68,11,2,17,0.00
2013-9-10,94.3,84.4,77.4,79.2,76.1,65.7,91,77,56,29.83,29.74,11,3,23,0.05
2013-9-11,88.0,81.8,75.4,80.6,76.1,72.5,96,83,72,29.85,29.75,11,2,21,0.92
2013-9-12,89.8,82.3,76.5,80.3,76.6,71.7,94,83,70,29.81,29.67,5,1,9,0.05
2013-9-13,96.8,85.5,74.7,80.0,75.7,72.0,94,74,52,29.70,29.59,7,1,12,0.00
2013-9-14,97.3,86.6,76.3,79.6,75.7,70.7,92,71,44,29.76,29.61,8,2,13,0.00
2013-9-15,88.5,83.2,80.1,80.2,77.1,73.9,89,82,74,29.84,29.71,10,2,16,0.07
2013-9-16,87.8,83.1,77.9,80.1,76.9,73.0,92,81,68,29.83,29.74,10,3,17,0.11
2013-9-17,87.4,81.5,75.7,80.1,76.5,73.8,95,85,73,29.81,29.70,10,3,19,0.39
2013-9-18,91.0,81.6,74.3,80.2,76.0,72.5,95,83,66,29.81,29.69,8,2,14,1.26
2013-9-19,91.8,81.9,74.8,80.5,75.4,71.9,94,81,62,29.79,29.71,12,3,16,0.01
2013-9-20,82.0,77.0,74.5,72.4,71.4,69.0,88,83,72,29.78,29.74,7,0,10,0.00
2013-9-21,75.9,75.9,75.9,71.5,71.5,71.5,86,86,86,29.75,29.75,0,0,3,0.00
2013-9-22,75.9,75.9,75.9,71.5,71.5,71.5,86,86,86,29.75,29.75,0,0,3,0.00
2013-9-23,75.9,75.9,75.9,71.5,71.5,71.5,86,86,86,29.75,29.75,0,0,3,0.00
2013-9-24,75.9,75.9,75.9,71.5,71.5,71.5,86,86,86,29.75,29.75,0,0,3,0.00
2013-9-25,91.8,79.8,75.9,79.5,74.0,71.5,90,82,62,30.06,29.75,10,1,14,0.01
2013-9-26,92.1,82.3,77.5,82.6,77.6,74.6,92,86,66,29.92,29.84,15,3,21,0.15
2013-9-27,93.4,82.7,75.4,78.4,74.5,69.6,94,77,50,29.98,29.87,10,3,16,0.00
2013-9-28,86.5,82.5,73.8,78.2,75.9,71.3,93,81,75,30.00,29.93,7,3,11,0.11
2013-9-29,86.5,86.5,86.5,77.7,77.7,77.7,75,75,75,30.00,30.00,4,4,8,0.00
2013-9-30,86.5,86.5,86.5,77.7,77.7,77.7,75,75,75,30.00,30.00,4,4,8,0.00
2013-10-1,91.4,85.9,81.3,77.7,75.8,71.8,77,72,58,30.08,30.00,9,4,17,0.36
2013-10-2,88.9,83.1,80.4,76.8,74.3,72.6,85,75,64,30.10,30.01,12,4,19,0.01
2013-10-3,92.1,83.7,77.4,78.2,74.6,71.7,88,74,61,30.11,30.00,10,3,15,0.00
2013-10-4,91.6,83.5,77.4,74.9,72.6,69.8,86,70,53,30.11,30.03,11,2,16,0.00
2013-10-5,93.6,82.7,71.6,75.6,72.0,68.5,92,71,50,30.08,29.98,9,2,14,0.00
2013-10-6,95.0,84.6,75.6,77.8,72.5,66.2,91,69,41,30.02,29.91,8,2,13,0.00
2013-10-7,92.8,81.6,73.9,77.0,73.1,69.5,92,77,53,29.95,29.85,14,2,26,0.12
2013-10-8,93.6,83.3,77.4,79.6,75.5,71.2,93,78,56,29.99,29.90,9,2,14,0.02
2013-10-9,90.7,80.5,73.8,77.6,73.8,70.2,90,80,61,30.04,29.95,11,4,18,0.00
2013-10-10,91.2,81.8,73.4,75.5,72.4,68.4,93,74,55,30.06,29.98,13,4,19,0.00
2013-10-11,90.5,80.2,70.3,72.8,68.8,65.7,92,70,50,30.06,29.99,11,3,16,0.00
2013-10-12,91.4,79.5,68.2,72.4,68.0,64.9,92,69,47,30.08,30.00,9,2,14,0.00
2013-10-13,88.7,80.2,72.5,72.5,67.7,63.1,90,67,45,30.10,30.01,12,3,17,0.00
2013-10-14,90.0,80.2,70.2,72.1,69.0,66.5,91,70,51,30.08,29.95,10,2,17,0.00
2013-10-15,91.2,80.5,72.0,74.0,70.5,67.5,92,73,53,30.01,29.91,11,3,17,0.00
2013-10-16,88.7,79.4,72.0,74.8,70.3,67.4,91,75,54,30.01,29.93,8,2,12,0.05
2013-10-17,91.4,81.2,70.5,75.5,71.6,68.1,93,74,54,30.02,29.93,8,2,12,0.00
2013-10-18,92.1,82.0,71.4,75.8,72.1,68.5,93,73,55,30.04,29.95,8,2,14,0.00
2013-10-19,93.2,84.4,74.7,75.6,73.5,70.6,90,71,53,30.02,29.92,8,2,14,0.00
2013-10-20,92.7,83.6,78.6,78.4,75.9,73.9,90,78,59,30.02,29.92,8,2,17,0.00
2013-10-21,93.7,84.7,77.0,79.8,76.3,73.9,93,77,57,30.06,29.95,9,2,15,0.00
2013-10-22,93.0,84.3,74.8,79.8,76.1,72.1,92,77,56,30.02,29.88,11,2,17,0.00
2013-10-23,93.0,82.5,-25.4,78.0,73.7,-30.9,92,76,54,30.01,29.86,53,3,53,0.02
2013-10-24,81.9,77.9,73.6,69.8,65.9,62.1,79,67,56,30.14,29.98,13,5,21,0.00
2013-10-25,85.5,78.3,70.5,67.5,64.4,62.2,81,63,48,30.20,30.11,14,6,26,0.00
2013-10-26,87.3,78.1,69.1,67.9,63.8,61.0,86,63,47,30.20,30.10,12,3,17,0.99
2013-10-27,86.4,76.2,66.9,67.2,63.3,60.6,81,65,48,30.14,30.07,9,2,17,0.00
2013-10-28,88.3,79.1,68.4,68.8,65.1,61.1,90,63,43,30.19,30.09,10,3,16,0.00
2013-10-29,78.1,78.1,78.1,65.4,65.4,65.4,65,65,65,30.19,30.19,2,2,8,0.00
2013-10-30,78.1,78.1,78.1,65.4,65.4,65.4,65,65,65,30.19,30.19,2,2,8,0.00
2013-10-31,78.1,78.1,78.1,65.4,65.4,65.4,65,65,65,30.19,30.19,2,2,8,0.00
2013-11-1,78.1,78.1,78.1,65.4,65.4,65.4,65,65,65,30.19,30.19,2,2,8,0.00
2013-11-2,78.1,78.1,78.1,65.4,65.4,65.4,65,65,65,30.19,30.19,2,2,8,0.00
2013-11-3,78.1,78.1,78.1,65.4,65.4,65.4,65,65,65,30.19,30.19,2,2,8,0.00
2013-11-4,78.1,78.1,78.1,65.4,65.4,65.4,65,65,65,30.19,30.19,2,2,8,0.00
2013-11-5,78.1,78.1,78.1,65.4,65.4,65.4,65,65,65,30.19,30.19,2,2,8,0.00
2013-11-6,78.1,78.1,78.1,65.4,65.4,65.4,65,65,65,30.19,30.19,2,2,8,0.00
2013-11-7,78.1,78.1,78.1,65.4,65.4,65.4,65,65,65,30.19,30.19,2,2,8,0.00
2013-11-8,78.1,78.1,78.1,65.4,65.4,65.4,65,65,65,30.19,30.19,2,2,8,0.00
2013-11-9,79.0,78.0,76.5,73.5,67.8,65.4,90,71,65,30.19,29.87,14,3,23,0.61
2013-11-10,85.3,80.2,77.7,74.0,71.1,67.8,84,74,65,29.98,29.90,10,5,20,0.00
2013-11-11,87.3,79.5,72.0,72.9,69.3,66.4,90,71,58,29.98,29.91,11,4,17,0.00
2013-11-12,88.0,79.1,70.0,72.5,68.7,66.5,92,71,54,29.94,29.83,9,3,14,0.00
2013-11-13,77.5,73.6,71.1,68.8,64.0,56.0,82,72,59,30.08,29.85,18,8,30,0.00
2013-11-14,79.2,73.4,70.0,62.9,58.2,54.4,68,59,51,30.10,30.00,16,7,25,0.00
2013-11-15,84.2,78.5,73.8,71.6,66.2,60.4,88,66,58,30.01,29.89,10,5,19,0.00
2013-11-16,85.5,79.3,73.9,73.6,69.8,65.5,91,73,60,29.96,29.88,10,4,17,0.05
2013-11-17,87.3,81.1,75.9,74.0,71.6,69.4,85,73,61,29.94,29.86,11,3,18,0.00
2013-11-18,89.4,78.9,72.0,75.5,71.7,68.9,93,79,58,29.90,29.78,5,1,9,0.00
2013-11-19,89.1,78.2,73.4,74.7,72.0,69.9,92,82,57,29.81,29.71,11,2,17,0.00
2013-11-20,86.7,78.1,70.7,75.9,72.7,69.1,96,84,64,29.92,29.79,6,1,9,0.00
2013-11-21,83.8,76.7,72.3,77.1,73.4,70.5,100,90,74,30.00,29.91,11,3,18,1.82
2013-11-22,84.9,78.8,73.6,73.9,71.8,69.7,96,79,66,30.01,29.92,14,6,23,0.02
2013-11-23,86.5,79.4,73.8,74.2,71.9,68.4,89,78,64,29.94,29.83,11,4,16,0.00
2013-11-24,84.9,74.6,68.2,72.0,68.2,64.6,97,81,57,30.01,29.85,14,5,24,0.28
2013-11-25,77.5,73.9,71.6,70.8,65.8,60.8,94,76,67,30.07,29.92,15,8,30,0.12
2013-11-26,85.5,78.5,72.1,76.3,74.1,69.7,95,86,73,29.92,29.70,14,6,23,0.07
2013-11-27,80.8,72.7,59.2,76.3,65.7,52.7,95,80,50,29.99,29.65,14,5,23,0.37
2013-11-28,73.6,64.1,48.7,61.2,55.6,46.5,92,75,62,30.10,29.99,12,7,23,0.00
2013-11-29,73.2,73.2,73.2,61.2,61.2,61.2,66,66,66,30.02,30.02,8,8,21,0.00
2013-11-30,73.2,73.2,73.2,61.2,61.2,61.2,66,66,66,30.02,30.02,8,8,21,0.00
2013-12-1,73.2,73.2,73.2,61.2,61.2,61.2,66,66,66,30.02,30.02,8,8,21,0.00
2013-12-2,73.2,73.2,73.2,61.2,61.2,61.2,66,66,66,30.02,30.02,8,8,21,0.00
2013-12-3,73.2,73.2,73.2,61.2,61.2,61.2,66,66,66,30.02,30.02,8,8,21,0.00
2013-12-4,73.2,73.2,73.2,61.2,61.2,61.2,66,66,66,30.02,30.02,8,8,21,0.00
2013-12-5,86.5,78.1,73.2,73.6,67.9,61.2,90,71,62,30.02,29.79,10,5,21,4.12
2013-12-6,86.0,79.1,73.8,72.2,70.1,67.4,85,74,60,29.97,29.87,11,4,20,0.00
2013-12-7,87.1,78.1,68.5,73.2,69.3,16.9,93,75,54,30.01,29.92,97,2,98,0.00
2013-12-8,121.3,78.9,71.6,72.8,70.1,17.1,94,76,10,29.99,29.91,10,4,97,0.04
2013-12-9,86.5,80.1,76.3,72.2,69.4,65.7,84,70,54,29.99,29.89,9,3,97,0.09
2013-12-10,87.1,79.2,-22.4,74.6,71.7,-29.3,91,78,63,29.95,29.86,7,2,12,0.00
2013-12-11,87.6,77.6,70.3,77.9,71.4,64.1,95,82,63,29.99,29.90,5,1,11,0.00
2013-12-12,81.0,71.7,0.0,72.7,67.1,60.4,95,81,66,30.01,29.92,12,5,20,0.00
2013-12-13,81.1,74.4,70.5,71.4,64.2,58.6,90,71,60,29.98,29.87,13,6,24,0.01
2013-12-14,84.4,78.8,74.8,73.6,71.9,69.2,87,79,68,29.89,29.77,11,5,21,0.00
2013-12-15,85.8,78.6,72.5,76.4,73.1,68.8,94,83,69,29.85,29.71,10,4,18,0.00
2013-12-16,75.0,68.9,62.4,69.7,62.2,59.2,92,80,66,29.95,29.82,10,5,16,0.00
2013-12-17,79.3,67.7,60.1,66.4,60.2,57.2,94,78,57,29.97,29.88,12,4,17,0.00
2013-12-18,78.6,67.5,59.9,60.6,58.5,56.0,94,75,51,30.03,29.93,13,4,21,0.00
2013-12-19,82.0,70.7,58.8,63.7,60.1,56.8,94,71,51,30.03,29.93,10,3,17,0.00
2013-12-20,84.0,78.0,72.9,70.8,67.8,62.6,79,71,59,29.97,29.89,10,4,19,0.00
2013-12-21,86.0,79.5,76.5,74.3,72.4,70.4,87,79,64,29.93,29.84,11,5,22,0.00
2013-12-22,86.0,79.9,77.0,75.4,73.2,72.0,88,80,67,29.96,29.87,11,5,24,0.00
2013-12-23,86.2,79.2,71.8,75.7,72.9,68.7,93,81,68,29.97,29.89,11,4,20,0.00
2013-12-24,87.3,73.4,67.8,75.0,68.3,62.9,95,84,57,29.96,29.86,13,3,22,0.00
2013-12-25,79.0,74.3,71.6,68.5,66.8,65.3,86,78,68,29.96,29.88,14,6,24,0.00
2013-12-26,82.2,76.4,72.5,74.8,70.5,68.1,92,82,74,29.95,29.85,10,4,17,0.04
2013-12-27,84.2,77.2,73.0,73.4,71.0,68.8,94,81,69,29.98,29.87,11,4,19,0.00
2013-12-28,83.8,78.2,75.2,74.6,71.9,69.0,91,81,70,29.96,29.81,11,5,21,0.00
2013-12-29,84.2,78.5,75.4,75.6,74.2,72.9,95,87,77,29.83,29.71,13,4,22,0.00
2013-12-30,85.8,75.0,69.6,74.3,70.8,66.3,97,87,65,29.93,29.77,9,3,13,0.00
2013-12-31,83.7,73.7,68.4,69.9,65.6,61.7,92,76,61,30.01,29.89,15,6,24,0.00
2014-1-1,82.0,77.1,73.2,76.0,71.9,64.8,95,84,71,29.98,29.83,10,4,19,0.08
2014-1-2,87.1,78.2,71.1,73.2,69.9,66.2,94,77,51,29.83,29.65,13,3,22,0.00